Albion, PA (16401)

1:33 PM EDT on September 05, 2015 (GMT -0400)
Albion Cranesville | | Change Station
CLOSE
Current Station
Personal Weather Station
Location: Albion, PA
Elevation: 984 ft
Nearby Weather Stations

Elev 984 ft 41.89 °N, 80.35 °W | Updated 12 minutes ago

Clear
Clear
88.7 °F
Feels Like 92 °F
N
3.7
Wind Variable Wind from SSW

Today
High -- | Low -- °F
--% Chance of Precip.
Yesterday
High -- | Low -- °F
Precip. -- in
6:51 AM 7:48 PM
Waning Gibbous, 47% visible
Pressure 30.15 in
Visibility 10.0 miles
Clouds Clear
Heat Index 92 °F
Dew Point 67 °F
Humidity 49%
Rainfall 0.00 in
Snow Depth Not available.
UV 9 out of 12
Pollen 10.70 out of 12
Air Quality Not available.
Flu Activity Not available.
METAR KERI 051651Z 32006KT 10SM CLR 28/20 A3016 RMK AO2 SLP208 T02830200
Pressure 30.15 in
Visibility 10.0 miles
Clouds Clear
Heat Index 92 °F
Dew Point 67 °F
Humidity 49%
Rainfall 0.00 in
Snow Depth Not available.
UV 9 out of 12
Pollen 10.70 out of 12
Air Quality Not available.
Flu Activity Not available.
METAR KERI 051651Z 32006KT 10SM CLR 28/20 A3016 RMK AO2 SLP208 T02830200

10-Day Weather Forecast

×

Almanac

Astronomy

Sep. 05, 2015 Rise Set
Actual Time
Civil Twilight
Nautical Twilight
Astronomical Twilight
Moon
Length of Visible Light
Length of Day
Tomorrow will be .
, % of the Moon is Illuminated

Today's Extremes

State Highs State Lows

Community

WunderPhotos

Upload Photos

1,852,508 photos uploaded!

WunderBlogs® & News

Nearby

Air Quality

  Air Quality AQ Index Pollutant
Not available.

Snow Depth

Station Depth Elevation

Earthquake Activity

City Distance Mag. Time & Date
Minimum magnitude displayed is 2.5.

Coastal Water Temperatures

Place Temperature

Stations

Nearby Weather Stations

Station Location Temp. Windchill Dew Point Humidity Wind Precip. Elev Updated Type